Time;durP1;ratioP1;P1;durP2;ratioP2;P2;SDS_P1;SDS_P2;PMS_P1;PMS_P2;Temp;Humidity;BMP_temperature;BMP_pressure;BME280_temperature;BME280_humidity;BME280_pressure;Samples;Min_cycle;Max_cycle;Signal;HPM_P1;HPM_P2
2023/06/21 00:01:51;;;;;;;8.70;5.50;;;;;;;;;;10126786;28;20057;-69
2023/06/21 00:06:46;;;;;;;6.40;5.63;;;;;;;;;;10140260;28;20079;-71
2023/06/21 00:11:41;;;;;;;12.63;8.02;;;;;;;;;;10131419;28;20056;-71
2023/06/21 00:16:36;;;;;;;8.38;7.47;;;;;;;;;;10121461;28;20052;-70
2023/06/21 00:21:29;;;;;;;9.27;8.35;;;;;;;;;;10138375;28;20455;-71
2023/06/21 00:26:22;;;;;;;11.65;10.45;;;;;;;;;;10144355;28;20117;-70
2023/06/21 00:31:16;;;;;;;11.20;10.07;;;;;;;;;;10122381;28;20057;-71
2023/06/21 00:36:09;;;;;;;10.00;9.00;;;;;;;;;;10143097;28;20084;-71
2023/06/21 00:41:07;;;;;;;20.35;9.48;;;;;;;;;;10142095;28;20491;-71
2023/06/21 00:46:02;;;;;;;9.35;6.43;;;;;;;;;;10143134;28;20507;-71
2023/06/21 00:50:59;;;;;;;7.68;6.28;;;;;;;;;;10138849;28;20051;-71
2023/06/21 00:55:52;;;;;;;7.10;5.70;;;;;;;;;;10131616;28;20131;-72
2023/06/21 01:00:49;;;;;;;8.13;5.78;;;;;;;;;;10120085;28;20519;-72
2023/06/21 01:05:45;;;;;;;8.95;6.95;;;;;;;;;;10141256;28;20079;-72
2023/06/21 01:11:24;;;;;;;10.82;6.60;;;;;;;;;;10123999;28;20057;-72
2023/06/21 01:16:18;;;;;;;12.38;7.28;;;;;;;;;;10133686;28;20170;-72
2023/06/21 01:21:18;;;;;;;16.83;6.88;;;;;;;;;;10130647;28;20084;-72
2023/06/21 01:26:23;;;;;;;9.75;6.28;;;;;;;;;;10143453;28;20063;-72
2023/06/21 01:31:18;;;;;;;7.75;6.05;;;;;;;;;;10141596;28;20053;-71
2023/06/21 01:36:15;;;;;;;7.68;6.57;;;;;;;;;;10148067;28;20057;-71
2023/06/21 01:41:10;;;;;;;7.40;6.38;;;;;;;;;;10145894;28;20041;-72
2023/06/21 01:46:04;;;;;;;6.32;5.72;;;;;;;;;;10148787;28;20454;-72
2023/06/21 01:50:57;;;;;;;10.23;5.63;;;;;;;;;;10120932;28;20041;-72
2023/06/21 01:56:17;;;;;;;9.57;6.45;;;;;;;;;;10134080;28;20062;-72
2023/06/21 02:01:11;;;;;;;11.00;5.75;;;;;;;;;;10134519;28;20055;-72
2023/06/21 02:06:05;;;;;;;11.38;5.63;;;;;;;;;;10140039;28;20487;-71
2023/06/21 02:10:57;;;;;;;8.93;5.05;;;;;;;;;;10127826;28;20041;-71
2023/06/21 02:15:50;;;;;;;5.28;4.78;;;;;;;;;;10125794;28;20056;-72
2023/06/21 02:20:45;;;;;;;8.43;6.07;;;;;;;;;;10134662;28;20082;-72
2023/06/21 02:25:38;;;;;;;10.82;5.32;;;;;;;;;;10150246;28;20072;-72
2023/06/21 02:30:33;;;;;;;5.57;5.07;;;;;;;;;;10144156;28;20049;-72
2023/06/21 02:35:28;;;;;;;8.38;5.90;;;;;;;;;;10140034;28;20468;-72
2023/06/21 02:40:22;;;;;;;10.13;5.35;;;;;;;;;;10141298;28;20049;-71
2023/06/21 02:45:16;;;;;;;10.82;6.38;;;;;;;;;;10142761;28;20065;-73
2023/06/21 02:50:10;;;;;;;9.45;4.95;;;;;;;;;;10116836;28;20136;-72
2023/06/21 02:55:07;;;;;;;8.68;5.70;;;;;;;;;;10145688;28;20073;-73
2023/06/21 03:00:00;;;;;;;9.30;5.82;;;;;;;;;;10129398;28;20410;-72
2023/06/21 03:04:54;;;;;;;8.40;5.18;;;;;;;;;;10132409;28;20109;-72
2023/06/21 03:09:47;;;;;;;9.02;5.82;;;;;;;;;;10120567;28;20482;-72
2023/06/21 03:14:41;;;;;;;9.85;5.25;;;;;;;;;;10124862;28;20079;-72
2023/06/21 03:19:37;;;;;;;13.02;5.68;;;;;;;;;;10146641;28;20059;-72
2023/06/21 03:24:32;;;;;;;6.25;5.00;;;;;;;;;;10134559;28;20569;-71
2023/06/21 03:29:28;;;;;;;16.25;6.85;;;;;;;;;;10115920;28;20506;-71
2023/06/21 03:34:21;;;;;;;6.70;6.03;;;;;;;;;;10136609;28;20079;-71
2023/06/21 03:39:15;;;;;;;12.68;5.57;;;;;;;;;;10146288;28;20048;-70
2023/06/21 03:44:09;;;;;;;8.00;5.32;;;;;;;;;;10144126;28;20098;-71
2023/06/21 03:49:04;;;;;;;10.32;6.57;;;;;;;;;;10143224;28;20067;-72
2023/06/21 03:53:58;;;;;;;7.78;6.35;;;;;;;;;;10144351;28;20084;-71
2023/06/21 03:58:52;;;;;;;12.25;5.72;;;;;;;;;;10142551;28;20052;-71
2023/06/21 04:03:46;;;;;;;13.60;7.43;;;;;;;;;;10126262;28;20047;-72
2023/06/21 04:08:39;;;;;;;6.05;5.18;;;;;;;;;;10142379;28;20072;-71
2023/06/21 04:13:32;;;;;;;9.82;5.57;;;;;;;;;;10142391;28;20051;-71
2023/06/21 04:18:25;;;;;;;10.75;6.22;;;;;;;;;;10133917;28;20060;-71
2023/06/21 04:23:19;;;;;;;6.05;5.43;;;;;;;;;;10121145;28;20074;-71
2023/06/21 04:28:12;;;;;;;10.30;5.57;;;;;;;;;;10120912;28;20131;-71
2023/06/21 04:33:05;;;;;;;6.95;5.95;;;;;;;;;;10131548;28;20052;-71
2023/06/21 04:38:00;;;;;;;7.55;5.20;;;;;;;;;;10133873;28;20049;-70
2023/06/21 04:42:58;;;;;;;8.18;5.40;;;;;;;;;;10138665;28;20472;-71
2023/06/21 04:47:52;;;;;;;9.40;5.07;;;;;;;;;;10144240;28;20052;-70
2023/06/21 04:52:48;;;;;;;7.88;5.20;;;;;;;;;;10130709;28;20053;-71
2023/06/21 04:57:42;;;;;;;7.95;5.43;;;;;;;;;;10133784;28;20052;-72
2023/06/21 05:02:36;;;;;;;11.05;5.50;;;;;;;;;;10143124;28;20053;-72
2023/06/21 05:07:31;;;;;;;8.77;5.40;;;;;;;;;;10150712;28;20542;-70
2023/06/21 05:12:25;;;;;;;9.90;5.75;;;;;;;;;;10142101;28;20558;-71
2023/06/21 05:17:18;;;;;;;9.80;5.53;;;;;;;;;;10143748;28;20114;-72
2023/06/21 05:22:11;;;;;;;11.70;5.78;;;;;;;;;;10149706;28;20040;-72
2023/06/21 05:27:06;;;;;;;15.77;5.65;;;;;;;;;;10151199;28;20048;-71
2023/06/21 05:31:59;;;;;;;18.45;7.38;;;;;;;;;;10136379;28;20048;-71
2023/06/21 05:36:53;;;;;;;10.73;5.38;;;;;;;;;;10146738;28;20067;-70
2023/06/21 05:41:46;;;;;;;9.95;5.75;;;;;;;;;;10103644;28;20044;-68
2023/06/21 05:46:39;;;;;;;10.75;6.57;;;;;;;;;;10117193;28;20078;-70
2023/06/21 05:51:33;;;;;;;7.72;5.90;;;;;;;;;;10086046;28;20084;-70
2023/06/21 05:56:27;;;;;;;10.43;5.95;;;;;;;;;;10111831;28;20056;-69
2023/06/21 06:01:21;;;;;;;7.45;5.57;;;;;;;;;;10122919;28;20397;-67
2023/06/21 06:06:19;;;;;;;8.73;5.63;;;;;;;;;;10135283;28;20056;-69
2023/06/21 06:11:12;;;;;;;9.68;5.40;;;;;;;;;;10118514;28;20045;-69
2023/06/21 06:16:06;;;;;;;10.50;5.20;;;;;;;;;;10143480;28;20048;-69
2023/06/21 06:20:59;;;;;;;9.23;4.15;;;;;;;;;;10136416;28;20052;-73
2023/06/21 06:25:53;;;;;;;7.55;5.40;;;;;;;;;;10123207;28;20057;-74
2023/06/21 06:30:46;;;;;;;9.93;4.75;;;;;;;;;;10121644;28;20114;-75
2023/06/21 06:35:39;;;;;;;12.60;4.97;;;;;;;;;;10109213;28;20132;-73
2023/06/21 06:40:34;;;;;;;10.13;5.18;;;;;;;;;;10108867;28;20056;-71
2023/06/21 06:45:27;;;;;;;15.55;5.53;;;;;;;;;;10121550;28;20114;-72
2023/06/21 06:50:21;;;;;;;8.10;4.32;;;;;;;;;;10112392;28;20615;-71
2023/06/21 06:55:14;;;;;;;6.75;4.22;;;;;;;;;;10144469;28;20056;-72
2023/06/21 07:00:14;;;;;;;8.30;4.68;;;;;;;;;;10126702;28;20131;-71
2023/06/21 07:05:09;;;;;;;8.90;4.93;;;;;;;;;;10111971;28;20140;-72
2023/06/21 07:10:03;;;;;;;7.10;4.50;;;;;;;;;;10127955;28;20566;-74
2023/06/21 07:14:58;;;;;;;8.23;3.97;;;;;;;;;;10130631;28;20099;-72
2023/06/21 07:19:54;;;;;;;5.90;3.72;;;;;;;;;;10137133;28;20064;-72
2023/06/21 07:24:49;;;;;;;9.35;4.22;;;;;;;;;;10142897;28;20048;-73
2023/06/21 07:29:42;;;;;;;12.95;3.63;;;;;;;;;;10134073;28;20080;-73
2023/06/21 07:34:36;;;;;;;13.70;4.22;;;;;;;;;;10122138;28;20045;-73
2023/06/21 07:39:30;;;;;;;4.47;3.75;;;;;;;;;;10141890;28;20051;-73
2023/06/21 07:44:43;;;;;;;10.43;4.80;;;;;;;;;;10135395;28;20047;-74
2023/06/21 07:49:37;;;;;;;8.27;4.28;;;;;;;;;;10118697;28;20451;-73
2023/06/21 07:54:30;;;;;;;4.03;3.63;;;;;;;;;;10143442;28;20079;-74
2023/06/21 07:59:24;;;;;;;5.07;4.15;;;;;;;;;;10146201;28;20056;-72
2023/06/21 08:04:18;;;;;;;7.70;3.92;;;;;;;;;;10136309;28;20052;-73
2023/06/21 08:09:12;;;;;;;7.32;4.05;;;;;;;;;;10142624;28;20465;-75
2023/06/21 08:14:06;;;;;;;4.43;3.92;;;;;;;;;;10127536;28;20113;-73
2023/06/21 08:19:00;;;;;;;7.90;4.13;;;;;;;;;;10131482;28;20526;-73
2023/06/21 08:23:54;;;;;;;9.45;3.75;;;;;;;;;;10129651;28;20059;-73
2023/06/21 08:28:47;;;;;;;7.45;4.10;;;;;;;;;;10145683;28;20075;-73
2023/06/21 08:33:42;;;;;;;4.57;3.92;;;;;;;;;;10144602;28;20045;-73
2023/06/21 08:38:36;;;;;;;5.03;4.28;;;;;;;;;;10128567;28;20041;-74
2023/06/21 08:43:29;;;;;;;4.93;4.32;;;;;;;;;;10143871;28;20071;-73
2023/06/21 08:48:23;;;;;;;5.70;4.13;;;;;;;;;;10131070;28;20052;-73
2023/06/21 08:53:25;;;;;;;9.15;4.70;;;;;;;;;;10144125;28;20052;-74
2023/06/21 08:58:22;;;;;;;6.75;4.10;;;;;;;;;;10139325;28;20621;-74
2023/06/21 09:03:18;;;;;;;7.03;4.23;;;;;;;;;;10143997;28;20053;-74
2023/06/21 09:08:12;;;;;;;7.83;4.50;;;;;;;;;;10142876;28;20495;-74
2023/06/21 09:13:06;;;;;;;5.78;4.28;;;;;;;;;;10142492;28;20044;-74
2023/06/21 09:18:06;;;;;;;7.65;4.25;;;;;;;;;;10144901;28;20090;-74
2023/06/21 09:23:01;;;;;;;8.43;4.22;;;;;;;;;;10143682;28;20105;-74
2023/06/21 09:27:55;;;;;;;6.97;4.57;;;;;;;;;;10138339;28;20090;-75
2023/06/21 09:32:51;;;;;;;11.93;4.10;;;;;;;;;;10142548;28;20052;-74
2023/06/21 09:37:45;;;;;;;4.40;4.00;;;;;;;;;;10130815;28;20064;-75
2023/06/21 09:42:41;;;;;;;4.68;3.53;;;;;;;;;;10143967;28;20049;-74
2023/06/21 09:47:35;;;;;;;6.65;3.40;;;;;;;;;;10130393;28;20688;-75
2023/06/21 09:52:29;;;;;;;5.05;3.47;;;;;;;;;;10149114;28;20056;-74
2023/06/21 09:57:47;;;;;;;8.15;4.22;;;;;;;;;;10150748;28;20055;-75
2023/06/21 10:02:41;;;;;;;3.35;3.00;;;;;;;;;;10149379;28;20051;-75
2023/06/21 10:07:42;;;;;;;8.40;3.28;;;;;;;;;;10149345;28;20055;-75
2023/06/21 10:12:35;;;;;;;4.05;2.95;;;;;;;;;;10149234;28;20070;-75
2023/06/21 10:17:30;;;;;;;7.15;4.10;;;;;;;;;;10144172;28;20080;-73
2023/06/21 10:22:25;;;;;;;14.13;3.53;;;;;;;;;;10147877;28;20070;-74
2023/06/21 10:27:20;;;;;;;12.53;3.37;;;;;;;;;;10149638;28;20060;-74
2023/06/21 10:32:14;;;;;;;4.72;2.70;;;;;;;;;;10149161;28;20080;-74
2023/06/21 10:37:37;;;;;;;6.22;2.75;;;;;;;;;;10149136;28;20044;-74
2023/06/21 10:42:32;;;;;;;7.90;2.88;;;;;;;;;;10145479;28;20123;-74
2023/06/21 10:47:25;;;;;;;;;;;;;;;;;;10135995;28;20064;-73
2023/06/21 10:52:20;;;;;;;4.95;2.72;;;;;;;;;;10147487;28;19967;-74
2023/06/21 10:57:13;;;;;;;8.25;2.53;;;;;;;;;;10146837;28;20131;-74
2023/06/21 11:02:08;;;;;;;5.28;2.75;;;;;;;;;;10144185;28;20056;-74
2023/06/21 11:07:01;;;;;;;;;;;;;;;;;;10148421;28;20106;-74
2023/06/21 11:11:54;;;;;;;8.93;3.50;;;;;;;;;;10146513;28;20291;-74
2023/06/21 11:16:48;;;;;;;9.45;2.97;;;;;;;;;;10146202;28;20052;-74
2023/06/21 11:21:49;;;;;;;8.93;2.55;;;;;;;;;;10143414;28;20052;-74
2023/06/21 11:27:06;;;;;;;7.32;3.40;;;;;;;;;;10135715;28;20052;-74
2023/06/21 11:32:11;;;;;;;7.95;2.58;;;;;;;;;;10133895;28;20052;-74
2023/06/21 11:37:29;;;;;;;6.93;2.95;;;;;;;;;;10146302;28;20059;-74
2023/06/21 11:42:26;;;;;;;11.88;3.00;;;;;;;;;;10109509;28;20128;-74
2023/06/21 11:47:20;;;;;;;8.35;2.88;;;;;;;;;;10142791;28;20060;-74
2023/06/21 11:52:13;;;;;;;8.83;2.90;;;;;;;;;;10145319;28;20510;-74
2023/06/21 11:57:07;;;;;;;6.57;2.75;;;;;;;;;;10113341;28;20052;-73
2023/06/21 12:02:17;;;;;;;3.97;2.60;;;;;;;;;;10142689;28;20080;-74
2023/06/21 12:07:11;;;;;;;13.02;3.00;;;;;;;;;;10145473;28;20053;-74
2023/06/21 12:12:28;;;;;;;10.38;3.45;;;;;;;;;;10137740;28;20045;-74
2023/06/21 12:17:22;;;;;;;8.13;3.42;;;;;;;;;;10144961;28;20056;-75
2023/06/21 12:22:22;;;;;;;8.13;2.42;;;;;;;;;;10134592;28;20080;-75
2023/06/21 12:27:17;;;;;;;14.02;2.83;;;;;;;;;;10144924;28;20434;-75
2023/06/21 12:32:12;;;;;;;6.05;3.05;;;;;;;;;;10139813;28;20385;-76
2023/06/21 12:37:06;;;;;;;8.90;3.30;;;;;;;;;;10140810;28;20106;-75
2023/06/21 12:41:59;;;;;;;6.25;2.70;;;;;;;;;;10141465;28;20577;-75
2023/06/21 12:46:54;;;;;;;10.57;3.30;;;;;;;;;;10140483;28;20052;-75
2023/06/21 12:51:48;;;;;;;5.45;2.97;;;;;;;;;;10129018;28;20045;-75
2023/06/21 12:57:01;;;;;;;7.88;3.60;;;;;;;;;;10138053;28;20488;-74
2023/06/21 13:01:57;;;;;;;6.63;2.92;;;;;;;;;;10121477;28;20053;-75
2023/06/21 13:06:51;;;;;;;8.45;3.53;;;;;;;;;;10133335;28;20123;-76
2023/06/21 13:11:45;;;;;;;9.27;3.00;;;;;;;;;;10141402;28;20119;-75
2023/06/21 13:16:39;;;;;;;7.07;3.20;;;;;;;;;;10138706;28;20055;-75
2023/06/21 13:21:33;;;;;;;7.60;2.70;;;;;;;;;;10138034;28;20044;-76
2023/06/21 13:26:28;;;;;;;3.80;3.35;;;;;;;;;;10135179;28;20131;-75
2023/06/21 13:31:21;;;;;;;5.50;2.95;;;;;;;;;;10150068;28;20496;-75
2023/06/21 13:36:17;;;;;;;8.60;3.00;;;;;;;;;;10136344;28;20057;-75
2023/06/21 13:41:10;;;;;;;11.83;3.30;;;;;;;;;;10143699;28;20049;-76
2023/06/21 13:46:04;;;;;;;10.85;3.55;;;;;;;;;;10150550;28;20058;-76
2023/06/21 13:50:57;;;;;;;9.02;3.03;;;;;;;;;;10149198;28;20504;-75
2023/06/21 13:55:51;;;;;;;4.60;3.50;;;;;;;;;;10136256;28;20074;-75
2023/06/21 14:00:44;;;;;;;15.77;4.10;;;;;;;;;;10147380;28;20069;-76
2023/06/21 14:05:38;;;;;;;9.13;3.78;;;;;;;;;;10146134;28;20044;-75
2023/06/21 14:10:33;;;;;;;13.23;3.60;;;;;;;;;;10149337;28;20563;-75
2023/06/21 14:15:27;;;;;;;;;;;;;;;;;;10149728;28;20056;-75
2023/06/21 14:20:23;;;;;;;9.80;3.80;;;;;;;;;;10143887;28;19952;-75
2023/06/21 14:25:18;;;;;;;11.18;4.43;;;;;;;;;;10148661;28;20087;-75
2023/06/21 14:30:11;;;;;;;9.43;4.20;;;;;;;;;;10148375;28;20055;-70
2023/06/21 14:35:06;;;;;;;9.45;4.20;;;;;;;;;;10129518;28;20462;-67
2023/06/21 14:40:02;;;;;;;6.93;3.65;;;;;;;;;;10127109;28;20060;-67
2023/06/21 14:44:56;;;;;;;10.15;3.75;;;;;;;;;;10146560;28;20079;-68
2023/06/21 14:49:53;;;;;;;12.82;4.13;;;;;;;;;;10143200;28;20064;-76
2023/06/21 14:54:49;;;;;;;5.75;4.10;;;;;;;;;;10144577;28;20407;-76
2023/06/21 14:59:44;;;;;;;5.47;3.83;;;;;;;;;;10143516;28;20057;-76
2023/06/21 15:04:38;;;;;;;11.43;4.57;;;;;;;;;;10143377;28;20052;-76
2023/06/21 15:09:31;;;;;;;9.13;4.47;;;;;;;;;;10142096;28;20076;-75
2023/06/21 15:14:24;;;;;;;14.32;4.18;;;;;;;;;;10146700;28;20127;-76
2023/06/21 15:19:19;;;;;;;6.95;4.38;;;;;;;;;;10147491;28;20067;-75
2023/06/21 15:24:13;;;;;;;8.32;4.93;;;;;;;;;;10144173;28;20488;-71
2023/06/21 15:29:07;;;;;;;12.82;4.63;;;;;;;;;;10145251;28;20407;-70
2023/06/21 15:34:01;;;;;;;11.30;4.45;;;;;;;;;;10131547;28;20442;-72
2023/06/21 15:38:54;;;;;;;9.38;4.13;;;;;;;;;;10143409;28;20088;-71
2023/06/21 15:43:48;;;;;;;11.82;5.25;;;;;;;;;;10136168;28;20137;-70
2023/06/21 15:48:40;;;;;;;12.82;5.05;;;;;;;;;;10145197;28;20202;-71
2023/06/21 15:53:35;;;;;;;11.45;5.00;;;;;;;;;;10139160;28;20143;-69
2023/06/21 15:58:27;;;;;;;11.10;5.32;;;;;;;;;;10145644;28;20044;-69
2023/06/21 16:03:22;;;;;;;9.10;4.85;;;;;;;;;;10144321;28;20049;-68
2023/06/21 16:08:18;;;;;;;21.63;5.13;;;;;;;;;;10121885;28;20135;-69
2023/06/21 16:13:11;;;;;;;14.52;5.18;;;;;;;;;;10143999;28;20048;-70
2023/06/21 16:18:17;;;;;;;19.48;5.10;;;;;;;;;;10140849;28;20068;-70
2023/06/21 16:23:11;;;;;;;11.13;5.35;;;;;;;;;;10114405;28;20044;-70
2023/06/21 16:28:05;;;;;;;12.90;5.13;;;;;;;;;;10140970;28;20157;-70
2023/06/21 16:32:59;;;;;;;19.08;5.50;;;;;;;;;;10135510;28;20408;-71
2023/06/21 16:37:52;;;;;;;16.00;5.30;;;;;;;;;;10094392;28;20061;-72
2023/06/21 16:42:52;;;;;;;7.05;4.68;;;;;;;;;;10119061;28;20053;-71
2023/06/21 16:47:48;;;;;;;7.35;4.68;;;;;;;;;;10130215;28;20048;-69
2023/06/21 16:52:43;;;;;;;15.52;5.30;;;;;;;;;;10131793;28;20110;-68
2023/06/21 16:57:38;;;;;;;9.18;5.30;;;;;;;;;;10131655;28;20104;-68
2023/06/21 17:02:32;;;;;;;7.07;4.65;;;;;;;;;;10146108;28;20052;-68
2023/06/21 17:07:25;;;;;;;11.60;5.35;;;;;;;;;;10150954;28;20128;-70
2023/06/21 17:12:19;;;;;;;9.73;4.85;;;;;;;;;;10146405;28;20060;-68
2023/06/21 17:17:13;;;;;;;11.48;6.43;;;;;;;;;;10114594;28;20059;-68
2023/06/21 17:22:08;;;;;;;7.88;4.72;;;;;;;;;;10141331;28;20052;-68
2023/06/21 17:27:02;;;;;;;8.70;4.60;;;;;;;;;;10151554;28;20507;-68
2023/06/21 17:31:57;;;;;;;15.93;4.90;;;;;;;;;;10149515;28;20507;-68
2023/06/21 17:36:52;;;;;;;11.98;6.20;;;;;;;;;;10144401;28;20076;-67
2023/06/21 17:41:45;;;;;;;9.48;5.55;;;;;;;;;;10149995;28;20052;-67
2023/06/21 17:46:40;;;;;;;8.93;4.95;;;;;;;;;;10148635;28;20076;-67
2023/06/21 17:51:35;;;;;;;8.60;5.00;;;;;;;;;;10150132;28;20048;-67
2023/06/21 17:56:30;;;;;;;11.23;7.50;;;;;;;;;;10148981;28;20053;-69
2023/06/21 18:01:25;;;;;;;12.25;5.88;;;;;;;;;;10150851;28;20084;-70
2023/06/21 18:06:19;;;;;;;21.13;5.95;;;;;;;;;;10149642;28;20472;-69
2023/06/21 18:11:13;;;;;;;19.45;6.18;;;;;;;;;;10136619;28;20056;-67
2023/06/21 18:16:07;;;;;;;15.10;5.43;;;;;;;;;;10136494;28;20048;-67
2023/06/21 18:21:00;;;;;;;10.90;5.82;;;;;;;;;;10150009;28;20057;-66
2023/06/21 18:25:56;;;;;;;17.48;5.38;;;;;;;;;;10136037;28;20530;-64
2023/06/21 18:30:50;;;;;;;18.52;6.57;;;;;;;;;;10135038;28;20052;-63
2023/06/21 18:35:43;;;;;;;18.42;7.25;;;;;;;;;;10145989;28;20540;-64
2023/06/21 18:40:37;;;;;;;55.33;20.92;;;;;;;;;;10147621;28;20056;-64
2023/06/21 18:45:31;;;;;;;47.80;15.98;;;;;;;;;;10140738;28;20442;-64
2023/06/21 18:50:24;;;;;;;43.60;12.85;;;;;;;;;;10147261;28;20044;-64
2023/06/21 18:55:19;;;;;;;25.20;12.27;;;;;;;;;;10146571;28;20083;-64
2023/06/21 19:00:14;;;;;;;12.90;7.22;;;;;;;;;;10142540;28;20447;-64
2023/06/21 19:05:08;;;;;;;12.63;5.80;;;;;;;;;;10135754;28;20526;-64
2023/06/21 19:10:03;;;;;;;13.75;6.50;;;;;;;;;;10122185;28;20079;-64
2023/06/21 19:14:58;;;;;;;10.85;6.30;;;;;;;;;;10123986;28;20110;-64
2023/06/21 19:19:52;;;;;;;13.00;6.65;;;;;;;;;;10143063;28;20048;-64
2023/06/21 19:24:46;;;;;;;14.90;6.72;;;;;;;;;;10141962;28;20080;-64
2023/06/21 19:29:39;;;;;;;17.50;8.20;;;;;;;;;;10145792;28;20045;-64
2023/06/21 19:34:33;;;;;;;15.02;6.68;;;;;;;;;;10145927;28;20127;-65
2023/06/21 19:39:27;;;;;;;12.10;6.03;;;;;;;;;;10146154;28;20064;-64
2023/06/21 19:44:21;;;;;;;11.32;6.25;;;;;;;;;;10141186;28;20048;-64
2023/06/21 19:49:17;;;;;;;11.60;6.93;;;;;;;;;;10146100;28;20060;-64
2023/06/21 19:54:19;;;;;;;23.67;8.73;;;;;;;;;;10123913;28;20057;-63
2023/06/21 19:59:15;;;;;;;20.33;7.20;;;;;;;;;;10134874;28;20061;-63
2023/06/21 20:04:09;;;;;;;12.90;7.00;;;;;;;;;;10145234;28;20048;-64
2023/06/21 20:09:03;;;;;;;14.32;6.88;;;;;;;;;;10127123;28;20057;-64
2023/06/21 20:13:57;;;;;;;9.90;6.85;;;;;;;;;;10116784;28;20060;-64
2023/06/21 20:18:50;;;;;;;14.40;6.72;;;;;;;;;;10135237;28;20052;-64
2023/06/21 20:23:44;;;;;;;13.90;7.65;;;;;;;;;;10143024;28;20045;-63
2023/06/21 20:28:38;;;;;;;13.15;7.70;;;;;;;;;;10118515;28;20574;-63
2023/06/21 20:33:32;;;;;;;15.07;8.40;;;;;;;;;;10118074;28;20086;-65
2023/06/21 20:38:26;;;;;;;17.27;8.35;;;;;;;;;;10136666;28;20093;-64
2023/06/21 20:43:19;;;;;;;11.63;7.72;;;;;;;;;;10131600;28;20052;-64
2023/06/21 20:48:15;;;;;;;23.65;7.90;;;;;;;;;;10140387;28;20082;-64
2023/06/21 20:53:09;;;;;;;13.60;7.38;;;;;;;;;;10132874;28;20049;-63
2023/06/21 20:58:03;;;;;;;8.48;6.57;;;;;;;;;;10120761;28;20060;-63
2023/06/21 21:02:56;;;;;;;11.07;7.05;;;;;;;;;;10123339;28;20098;-63
2023/06/21 21:07:50;;;;;;;9.57;7.55;;;;;;;;;;10112564;28;20057;-64
2023/06/21 21:12:43;;;;;;;15.50;9.18;;;;;;;;;;10116192;28;20099;-62
2023/06/21 21:17:37;;;;;;;20.17;8.98;;;;;;;;;;10128460;28;20072;-62
2023/06/21 21:22:31;;;;;;;14.00;7.47;;;;;;;;;;10143953;28;20135;-62
2023/06/21 21:27:25;;;;;;;13.82;7.88;;;;;;;;;;10142077;28;20056;-62
2023/06/21 21:32:18;;;;;;;16.80;7.28;;;;;;;;;;10142006;28;20451;-62
2023/06/21 21:37:12;;;;;;;15.63;7.15;;;;;;;;;;10138554;28;20119;-62
2023/06/21 21:42:06;;;;;;;12.43;7.10;;;;;;;;;;10126186;28;20043;-62
2023/06/21 21:47:00;;;;;;;9.95;7.57;;;;;;;;;;10142244;28;20052;-62
2023/06/21 21:51:54;;;;;;;13.73;8.32;;;;;;;;;;10142197;28;20045;-62
2023/06/21 21:56:48;;;;;;;19.17;7.13;;;;;;;;;;10149982;28;20056;-62
2023/06/21 22:01:42;;;;;;;9.07;6.38;;;;;;;;;;10141661;28;20049;-62
2023/06/21 22:06:36;;;;;;;12.02;7.40;;;;;;;;;;10126735;28;20057;-63
2023/06/21 22:11:33;;;;;;;17.02;8.13;;;;;;;;;;10148577;28;20496;-62
2023/06/21 22:16:27;;;;;;;11.55;7.10;;;;;;;;;;10147944;28;20131;-62
2023/06/21 22:21:21;;;;;;;9.23;7.32;;;;;;;;;;10149431;28;20049;-62
2023/06/21 22:26:16;;;;;;;11.27;6.88;;;;;;;;;;10149314;28;20391;-63
2023/06/21 22:31:10;;;;;;;8.23;7.10;;;;;;;;;;10144372;28;20048;-64
2023/06/21 22:36:07;;;;;;;11.40;7.47;;;;;;;;;;10147920;28;20056;-64
2023/06/21 22:41:01;;;;;;;13.70;7.50;;;;;;;;;;10144652;28;20052;-64
2023/06/21 22:45:55;;;;;;;11.40;7.72;;;;;;;;;;10145919;28;20056;-64
2023/06/21 22:50:55;;;;;;;13.10;7.32;;;;;;;;;;10148039;28;20106;-63
2023/06/21 22:55:49;;;;;;;9.90;7.80;;;;;;;;;;10145653;28;20140;-64
2023/06/21 23:00:44;;;;;;;9.25;7.25;;;;;;;;;;10146413;28;20500;-67
2023/06/21 23:05:37;;;;;;;11.70;6.70;;;;;;;;;;10115239;28;20140;-64
2023/06/21 23:10:30;;;;;;;13.35;7.43;;;;;;;;;;10102263;28;20064;-65
2023/06/21 23:15:24;;;;;;;14.88;7.13;;;;;;;;;;10106546;28;20041;-64
2023/06/21 23:20:18;;;;;;;11.90;6.68;;;;;;;;;;10106744;28;20061;-64
2023/06/21 23:25:17;;;;;;;10.38;6.75;;;;;;;;;;10108970;28;20048;-63
2023/06/21 23:30:17;;;;;;;8.23;6.78;;;;;;;;;;10122897;28;20040;-64
2023/06/21 23:35:28;;;;;;;18.45;7.05;;;;;;;;;;10110735;28;20052;-63
2023/06/21 23:40:22;;;;;;;7.72;6.47;;;;;;;;;;10140165;28;20079;-64
2023/06/21 23:45:16;;;;;;;7.32;6.63;;;;;;;;;;10138015;28;20103;-64
2023/06/21 23:50:11;;;;;;;10.95;7.03;;;;;;;;;;10128417;28;20563;-64
2023/06/21 23:55:05;;;;;;;9.48;7.40;;;;;;;;;;10129072;28;20068;-64
2023/06/21 23:59:59;;;;;;;8.73;7.13;;;;;;;;;;10144754;28;20495;-63
